Tetney, United Kingdom
Current Conditions -  °F | °C
As of 9:50 AM on Saturday 22 Nov 2014 (Local Time) from EGXS Reporting Station
Overcast Overcast  
Wind Chill: 11°   Ceiling: 200
Heat Index: 11°   Visibility: 1.6mi
Dew Point: 11°   Wind: 13mph
Humidity: 100%   Direction: 160°SSE
Pressure: 29.85"   Gusts: NA
Location:  53.49°N, 0.02°W
Report Text: EGXS 220950Z AUTO 16011KT 2700 // OVC002/// 11/11 Q1011
Loading
Personal Weather Stations






























Interactive Weather Map New forecast layout! Learn more

10-Day Weather Forecast

Advertisements
Track Severe Weather on mobile